sensor_id;sensor_type;location;lat;lon;timestamp;P1;durP1;ratioP1;P2;durP2;ratioP2
15878;SDS011;61999;51.514;14.614;2022-12-18T00:00:05;19.27;;;9.50;;
15878;SDS011;61999;51.514;14.614;2022-12-18T00:02:34;17.17;;;9.17;;
15878;SDS011;61999;51.514;14.614;2022-12-18T00:05:03;20.47;;;10.67;;
15878;SDS011;61999;51.514;14.614;2022-12-18T00:07:31;23.43;;;10.33;;
15878;SDS011;61999;51.514;14.614;2022-12-18T00:09:59;23.03;;;10.33;;
15878;SDS011;61999;51.514;14.614;2022-12-18T00:12:29;21.40;;;10.57;;
15878;SDS011;61999;51.514;14.614;2022-12-18T00:14:57;19.50;;;9.73;;
15878;SDS011;61999;51.514;14.614;2022-12-18T00:17:25;22.27;;;10.10;;
15878;SDS011;61999;51.514;14.614;2022-12-18T00:19:53;20.87;;;9.90;;
15878;SDS011;61999;51.514;14.614;2022-12-18T00:22:21;22.37;;;10.53;;
15878;SDS011;61999;51.514;14.614;2022-12-18T00:24:49;23.33;;;11.27;;
15878;SDS011;61999;51.514;14.614;2022-12-18T00:27:16;24.03;;;11.00;;
15878;SDS011;61999;51.514;14.614;2022-12-18T00:29:46;25.33;;;10.27;;
15878;SDS011;61999;51.514;14.614;2022-12-18T00:32:15;24.10;;;11.53;;
15878;SDS011;61999;51.514;14.614;2022-12-18T00:34:44;22.57;;;11.73;;
15878;SDS011;61999;51.514;14.614;2022-12-18T00:37:12;22.60;;;10.70;;
15878;SDS011;61999;51.514;14.614;2022-12-18T00:39:43;18.80;;;9.43;;
15878;SDS011;61999;51.514;14.614;2022-12-18T00:42:11;23.30;;;11.33;;
15878;SDS011;61999;51.514;14.614;2022-12-18T00:44:58;21.60;;;10.97;;
15878;SDS011;61999;51.514;14.614;2022-12-18T00:47:26;21.20;;;9.00;;
15878;SDS011;61999;51.514;14.614;2022-12-18T00:49:54;18.63;;;8.83;;
15878;SDS011;61999;51.514;14.614;2022-12-18T00:52:22;22.10;;;9.20;;
15878;SDS011;61999;51.514;14.614;2022-12-18T00:54:50;22.37;;;10.43;;
15878;SDS011;61999;51.514;14.614;2022-12-18T00:57:18;17.23;;;9.53;;
15878;SDS011;61999;51.514;14.614;2022-12-18T00:59:46;15.77;;;7.40;;
15878;SDS011;61999;51.514;14.614;2022-12-18T01:02:15;16.70;;;7.63;;
15878;SDS011;61999;51.514;14.614;2022-12-18T01:04:43;17.17;;;8.63;;
15878;SDS011;61999;51.514;14.614;2022-12-18T01:07:11;19.50;;;9.70;;
15878;SDS011;61999;51.514;14.614;2022-12-18T01:09:39;15.63;;;8.53;;
15878;SDS011;61999;51.514;14.614;2022-12-18T01:12:07;19.90;;;10.00;;
15878;SDS011;61999;51.514;14.614;2022-12-18T01:14:35;15.07;;;8.97;;
15878;SDS011;61999;51.514;14.614;2022-12-18T01:17:04;19.37;;;8.70;;
15878;SDS011;61999;51.514;14.614;2022-12-18T01:19:33;20.37;;;9.47;;
15878;SDS011;61999;51.514;14.614;2022-12-18T01:22:01;18.10;;;8.90;;
15878;SDS011;61999;51.514;14.614;2022-12-18T01:24:29;24.17;;;10.93;;
15878;SDS011;61999;51.514;14.614;2022-12-18T01:26:57;26.80;;;11.97;;
15878;SDS011;61999;51.514;14.614;2022-12-18T01:29:25;24.37;;;12.03;;
15878;SDS011;61999;51.514;14.614;2022-12-18T01:31:54;21.80;;;10.23;;
15878;SDS011;61999;51.514;14.614;2022-12-18T01:34:23;26.00;;;12.23;;
15878;SDS011;61999;51.514;14.614;2022-12-18T01:36:52;22.63;;;9.90;;
15878;SDS011;61999;51.514;14.614;2022-12-18T01:39:21;26.53;;;11.30;;
15878;SDS011;61999;51.514;14.614;2022-12-18T01:41:48;20.93;;;10.10;;
15878;SDS011;61999;51.514;14.614;2022-12-18T01:44:53;19.03;;;9.53;;
15878;SDS011;61999;51.514;14.614;2022-12-18T01:47:26;21.07;;;9.97;;
15878;SDS011;61999;51.514;14.614;2022-12-18T01:50:01;23.60;;;11.37;;
15878;SDS011;61999;51.514;14.614;2022-12-18T01:52:35;21.77;;;10.63;;
15878;SDS011;61999;51.514;14.614;2022-12-18T01:55:09;21.20;;;10.73;;
15878;SDS011;61999;51.514;14.614;2022-12-18T01:57:39;24.70;;;11.97;;
15878;SDS011;61999;51.514;14.614;2022-12-18T02:00:11;26.63;;;11.90;;
15878;SDS011;61999;51.514;14.614;2022-12-18T02:02:42;19.50;;;10.03;;
15878;SDS011;61999;51.514;14.614;2022-12-18T02:05:13;22.53;;;12.33;;
15878;SDS011;61999;51.514;14.614;2022-12-18T02:07:49;28.83;;;11.73;;
15878;SDS011;61999;51.514;14.614;2022-12-18T02:10:33;30.03;;;12.77;;
15878;SDS011;61999;51.514;14.614;2022-12-18T02:13:10;23.10;;;10.20;;
15878;SDS011;61999;51.514;14.614;2022-12-18T02:15:48;26.93;;;12.47;;
15878;SDS011;61999;51.514;14.614;2022-12-18T02:18:29;29.30;;;13.00;;
15878;SDS011;61999;51.514;14.614;2022-12-18T02:21:08;22.90;;;10.73;;
15878;SDS011;61999;51.514;14.614;2022-12-18T02:23:52;25.03;;;12.03;;
15878;SDS011;61999;51.514;14.614;2022-12-18T02:26:42;24.23;;;11.17;;
15878;SDS011;61999;51.514;14.614;2022-12-18T02:29:17;24.03;;;11.50;;
15878;SDS011;61999;51.514;14.614;2022-12-18T02:31:53;28.27;;;12.33;;
15878;SDS011;61999;51.514;14.614;2022-12-18T02:34:28;31.57;;;13.23;;
15878;SDS011;61999;51.514;14.614;2022-12-18T02:37:00;73.57;;;34.07;;
15878;SDS011;61999;51.514;14.614;2022-12-18T02:39:33;28.20;;;13.73;;
15878;SDS011;61999;51.514;14.614;2022-12-18T02:42:07;29.53;;;13.37;;
15878;SDS011;61999;51.514;14.614;2022-12-18T02:44:41;40.63;;;16.73;;
15878;SDS011;61999;51.514;14.614;2022-12-18T02:47:11;32.77;;;14.20;;
15878;SDS011;61999;51.514;14.614;2022-12-18T02:49:44;28.27;;;14.67;;
15878;SDS011;61999;51.514;14.614;2022-12-18T02:52:27;30.20;;;13.87;;
15878;SDS011;61999;51.514;14.614;2022-12-18T02:55:13;30.03;;;12.57;;
15878;SDS011;61999;51.514;14.614;2022-12-18T02:57:58;29.53;;;14.17;;
15878;SDS011;61999;51.514;14.614;2022-12-18T03:00:40;30.97;;;13.83;;
15878;SDS011;61999;51.514;14.614;2022-12-18T03:03:16;20.90;;;10.67;;
15878;SDS011;61999;51.514;14.614;2022-12-18T03:05:53;25.77;;;11.23;;
15878;SDS011;61999;51.514;14.614;2022-12-18T03:08:29;29.10;;;12.80;;
15878;SDS011;61999;51.514;14.614;2022-12-18T03:11:03;26.53;;;11.63;;
15878;SDS011;61999;51.514;14.614;2022-12-18T03:13:38;25.60;;;11.60;;
15878;SDS011;61999;51.514;14.614;2022-12-18T03:16:12;25.40;;;12.33;;
15878;SDS011;61999;51.514;14.614;2022-12-18T03:18:51;26.73;;;12.57;;
15878;SDS011;61999;51.514;14.614;2022-12-18T03:21:26;28.67;;;14.03;;
15878;SDS011;61999;51.514;14.614;2022-12-18T03:24:03;29.00;;;12.20;;
15878;SDS011;61999;51.514;14.614;2022-12-18T03:26:36;28.67;;;11.17;;
15878;SDS011;61999;51.514;14.614;2022-12-18T03:29:13;26.50;;;12.03;;
15878;SDS011;61999;51.514;14.614;2022-12-18T03:31:47;24.93;;;11.13;;
15878;SDS011;61999;51.514;14.614;2022-12-18T03:34:23;21.77;;;11.83;;
15878;SDS011;61999;51.514;14.614;2022-12-18T03:36:57;24.43;;;12.13;;
15878;SDS011;61999;51.514;14.614;2022-12-18T03:39:25;23.63;;;10.93;;
15878;SDS011;61999;51.514;14.614;2022-12-18T03:41:55;21.47;;;10.00;;
15878;SDS011;61999;51.514;14.614;2022-12-18T03:44:34;26.83;;;13.30;;
15878;SDS011;61999;51.514;14.614;2022-12-18T03:47:12;21.77;;;10.50;;
15878;SDS011;61999;51.514;14.614;2022-12-18T03:49:50;20.23;;;10.40;;
15878;SDS011;61999;51.514;14.614;2022-12-18T03:52:37;23.40;;;11.33;;
15878;SDS011;61999;51.514;14.614;2022-12-18T03:55:13;26.53;;;12.87;;
15878;SDS011;61999;51.514;14.614;2022-12-18T03:57:41;27.57;;;13.00;;
15878;SDS011;61999;51.514;14.614;2022-12-18T04:00:14;33.80;;;16.43;;
15878;SDS011;61999;51.514;14.614;2022-12-18T04:02:47;27.57;;;13.23;;
15878;SDS011;61999;51.514;14.614;2022-12-18T04:05:20;28.80;;;12.40;;
15878;SDS011;61999;51.514;14.614;2022-12-18T04:07:51;23.43;;;11.37;;
15878;SDS011;61999;51.514;14.614;2022-12-18T04:10:22;24.33;;;12.17;;
15878;SDS011;61999;51.514;14.614;2022-12-18T04:12:50;28.30;;;12.87;;
15878;SDS011;61999;51.514;14.614;2022-12-18T04:15:24;20.40;;;11.13;;
15878;SDS011;61999;51.514;14.614;2022-12-18T04:17:52;26.10;;;12.13;;
15878;SDS011;61999;51.514;14.614;2022-12-18T04:20:20;23.80;;;11.87;;
15878;SDS011;61999;51.514;14.614;2022-12-18T04:22:48;21.53;;;10.93;;
15878;SDS011;61999;51.514;14.614;2022-12-18T04:25:16;18.73;;;9.67;;
15878;SDS011;61999;51.514;14.614;2022-12-18T04:27:44;29.67;;;12.80;;
15878;SDS011;61999;51.514;14.614;2022-12-18T04:30:12;26.90;;;12.70;;
15878;SDS011;61999;51.514;14.614;2022-12-18T04:32:42;28.03;;;13.80;;
15878;SDS011;61999;51.514;14.614;2022-12-18T04:35:12;25.77;;;13.10;;
15878;SDS011;61999;51.514;14.614;2022-12-18T04:37:41;27.37;;;14.57;;
15878;SDS011;61999;51.514;14.614;2022-12-18T04:40:09;26.50;;;12.33;;
15878;SDS011;61999;51.514;14.614;2022-12-18T04:42:38;29.97;;;13.77;;
15878;SDS011;61999;51.514;14.614;2022-12-18T04:45:07;26.67;;;13.33;;
15878;SDS011;61999;51.514;14.614;2022-12-18T04:47:36;26.80;;;13.20;;
15878;SDS011;61999;51.514;14.614;2022-12-18T04:50:06;27.73;;;13.47;;
15878;SDS011;61999;51.514;14.614;2022-12-18T04:52:35;27.40;;;12.93;;
15878;SDS011;61999;51.514;14.614;2022-12-18T04:55:04;30.67;;;13.60;;
15878;SDS011;61999;51.514;14.614;2022-12-18T04:57:33;26.27;;;13.23;;
15878;SDS011;61999;51.514;14.614;2022-12-18T05:00:01;25.90;;;13.50;;
15878;SDS011;61999;51.514;14.614;2022-12-18T05:02:30;21.60;;;11.53;;
15878;SDS011;61999;51.514;14.614;2022-12-18T05:04:59;21.77;;;10.67;;
15878;SDS011;61999;51.514;14.614;2022-12-18T05:07:28;26.93;;;13.37;;
15878;SDS011;61999;51.514;14.614;2022-12-18T05:09:56;10.43;;;6.17;;
15878;SDS011;61999;51.514;14.614;2022-12-18T05:12:24;22.67;;;11.93;;
15878;SDS011;61999;51.514;14.614;2022-12-18T05:14:52;30.50;;;14.57;;
15878;SDS011;61999;51.514;14.614;2022-12-18T05:17:20;59.10;;;24.93;;
15878;SDS011;61999;51.514;14.614;2022-12-18T05:19:48;34.67;;;17.40;;
15878;SDS011;61999;51.514;14.614;2022-12-18T05:22:16;26.00;;;12.23;;
15878;SDS011;61999;51.514;14.614;2022-12-18T05:24:45;18.60;;;10.87;;
15878;SDS011;61999;51.514;14.614;2022-12-18T05:27:13;22.57;;;12.70;;
15878;SDS011;61999;51.514;14.614;2022-12-18T05:29:41;18.33;;;9.73;;
15878;SDS011;61999;51.514;14.614;2022-12-18T05:32:09;19.33;;;11.73;;
15878;SDS011;61999;51.514;14.614;2022-12-18T05:34:37;18.23;;;10.43;;
15878;SDS011;61999;51.514;14.614;2022-12-18T05:37:05;18.53;;;9.47;;
15878;SDS011;61999;51.514;14.614;2022-12-18T05:39:33;12.33;;;8.77;;
15878;SDS011;61999;51.514;14.614;2022-12-18T05:42:02;16.00;;;9.13;;
15878;SDS011;61999;51.514;14.614;2022-12-18T05:44:30;15.70;;;8.63;;
15878;SDS011;61999;51.514;14.614;2022-12-18T05:46:58;16.20;;;9.43;;
15878;SDS011;61999;51.514;14.614;2022-12-18T05:49:26;15.80;;;9.70;;
15878;SDS011;61999;51.514;14.614;2022-12-18T05:51:54;18.27;;;9.97;;
15878;SDS011;61999;51.514;14.614;2022-12-18T05:54:22;16.33;;;8.97;;
15878;SDS011;61999;51.514;14.614;2022-12-18T05:56:50;21.70;;;10.83;;
15878;SDS011;61999;51.514;14.614;2022-12-18T05:59:19;19.17;;;10.40;;
15878;SDS011;61999;51.514;14.614;2022-12-18T06:01:54;23.93;;;11.30;;
15878;SDS011;61999;51.514;14.614;2022-12-18T06:04:22;21.53;;;12.03;;
15878;SDS011;61999;51.514;14.614;2022-12-18T06:06:50;22.77;;;12.23;;
15878;SDS011;61999;51.514;14.614;2022-12-18T06:09:18;19.37;;;11.70;;
15878;SDS011;61999;51.514;14.614;2022-12-18T06:11:46;20.53;;;12.07;;
15878;SDS011;61999;51.514;14.614;2022-12-18T06:14:14;17.57;;;10.83;;
15878;SDS011;61999;51.514;14.614;2022-12-18T06:16:44;18.23;;;9.63;;
15878;SDS011;61999;51.514;14.614;2022-12-18T06:19:13;19.67;;;11.37;;
15878;SDS011;61999;51.514;14.614;2022-12-18T06:21:43;19.40;;;10.83;;
15878;SDS011;61999;51.514;14.614;2022-12-18T06:24:11;19.00;;;10.57;;
15878;SDS011;61999;51.514;14.614;2022-12-18T06:26:39;18.63;;;11.00;;
15878;SDS011;61999;51.514;14.614;2022-12-18T06:29:07;20.33;;;11.20;;
15878;SDS011;61999;51.514;14.614;2022-12-18T06:31:35;22.37;;;12.20;;
15878;SDS011;61999;51.514;14.614;2022-12-18T06:34:04;17.67;;;11.27;;
15878;SDS011;61999;51.514;14.614;2022-12-18T06:36:32;15.30;;;9.57;;
15878;SDS011;61999;51.514;14.614;2022-12-18T06:39:00;20.60;;;11.17;;
15878;SDS011;61999;51.514;14.614;2022-12-18T06:41:29;17.70;;;11.07;;
15878;SDS011;61999;51.514;14.614;2022-12-18T06:43:57;18.50;;;10.63;;
15878;SDS011;61999;51.514;14.614;2022-12-18T06:46:25;18.10;;;9.97;;
15878;SDS011;61999;51.514;14.614;2022-12-18T06:48:54;16.40;;;10.47;;
15878;SDS011;61999;51.514;14.614;2022-12-18T06:51:24;16.57;;;9.63;;
15878;SDS011;61999;51.514;14.614;2022-12-18T06:53:52;17.30;;;9.60;;
15878;SDS011;61999;51.514;14.614;2022-12-18T06:56:20;17.77;;;10.00;;
15878;SDS011;61999;51.514;14.614;2022-12-18T06:58:48;20.20;;;11.17;;
15878;SDS011;61999;51.514;14.614;2022-12-18T07:01:17;19.10;;;10.40;;
15878;SDS011;61999;51.514;14.614;2022-12-18T07:03:46;16.67;;;10.07;;
15878;SDS011;61999;51.514;14.614;2022-12-18T07:06:15;18.33;;;10.93;;
15878;SDS011;61999;51.514;14.614;2022-12-18T07:08:47;16.03;;;9.27;;
15878;SDS011;61999;51.514;14.614;2022-12-18T07:11:17;24.20;;;12.90;;
15878;SDS011;61999;51.514;14.614;2022-12-18T07:13:46;20.20;;;11.23;;
15878;SDS011;61999;51.514;14.614;2022-12-18T07:16:15;18.93;;;10.77;;
15878;SDS011;61999;51.514;14.614;2022-12-18T07:18:49;20.10;;;10.50;;
15878;SDS011;61999;51.514;14.614;2022-12-18T07:21:18;19.17;;;10.93;;
15878;SDS011;61999;51.514;14.614;2022-12-18T07:23:49;18.77;;;11.20;;
15878;SDS011;61999;51.514;14.614;2022-12-18T07:26:18;17.93;;;10.70;;
15878;SDS011;61999;51.514;14.614;2022-12-18T07:28:48;22.47;;;12.07;;
15878;SDS011;61999;51.514;14.614;2022-12-18T07:31:18;20.13;;;11.10;;
15878;SDS011;61999;51.514;14.614;2022-12-18T07:33:48;21.23;;;11.47;;
15878;SDS011;61999;51.514;14.614;2022-12-18T07:36:18;15.63;;;9.53;;
15878;SDS011;61999;51.514;14.614;2022-12-18T07:38:50;18.70;;;9.93;;
15878;SDS011;61999;51.514;14.614;2022-12-18T07:41:19;14.70;;;10.70;;
15878;SDS011;61999;51.514;14.614;2022-12-18T07:43:47;17.27;;;9.37;;
15878;SDS011;61999;51.514;14.614;2022-12-18T07:46:16;15.80;;;9.87;;
15878;SDS011;61999;51.514;14.614;2022-12-18T07:48:45;19.57;;;10.07;;
15878;SDS011;61999;51.514;14.614;2022-12-18T07:51:13;19.33;;;11.73;;
15878;SDS011;61999;51.514;14.614;2022-12-18T07:53:41;18.40;;;9.50;;
15878;SDS011;61999;51.514;14.614;2022-12-18T07:56:11;19.43;;;11.57;;
15878;SDS011;61999;51.514;14.614;2022-12-18T07:58:56;22.13;;;11.37;;
15878;SDS011;61999;51.514;14.614;2022-12-18T08:01:33;18.77;;;11.00;;
15878;SDS011;61999;51.514;14.614;2022-12-18T08:04:01;19.87;;;12.23;;
15878;SDS011;61999;51.514;14.614;2022-12-18T08:06:30;19.57;;;11.40;;
15878;SDS011;61999;51.514;14.614;2022-12-18T08:08:58;20.80;;;11.53;;
15878;SDS011;61999;51.514;14.614;2022-12-18T08:11:27;21.27;;;11.63;;
15878;SDS011;61999;51.514;14.614;2022-12-18T08:13:57;19.87;;;11.23;;
15878;SDS011;61999;51.514;14.614;2022-12-18T08:16:25;19.73;;;11.83;;
15878;SDS011;61999;51.514;14.614;2022-12-18T08:18:54;17.60;;;10.40;;
15878;SDS011;61999;51.514;14.614;2022-12-18T08:21:23;20.67;;;11.23;;
15878;SDS011;61999;51.514;14.614;2022-12-18T08:23:55;18.10;;;10.60;;
15878;SDS011;61999;51.514;14.614;2022-12-18T08:26:26;22.87;;;12.97;;
15878;SDS011;61999;51.514;14.614;2022-12-18T08:28:58;18.87;;;10.63;;
15878;SDS011;61999;51.514;14.614;2022-12-18T08:31:28;19.87;;;11.60;;
15878;SDS011;61999;51.514;14.614;2022-12-18T08:33:57;9.70;;;5.97;;
15878;SDS011;61999;51.514;14.614;2022-12-18T08:36:25;12.70;;;8.47;;
15878;SDS011;61999;51.514;14.614;2022-12-18T08:38:54;14.87;;;10.17;;
15878;SDS011;61999;51.514;14.614;2022-12-18T08:41:23;15.80;;;8.73;;
15878;SDS011;61999;51.514;14.614;2022-12-18T08:44:00;18.37;;;9.70;;
15878;SDS011;61999;51.514;14.614;2022-12-18T08:46:45;20.83;;;10.10;;
15878;SDS011;61999;51.514;14.614;2022-12-18T08:49:13;15.20;;;9.40;;
15878;SDS011;61999;51.514;14.614;2022-12-18T08:51:41;19.33;;;10.33;;
15878;SDS011;61999;51.514;14.614;2022-12-18T08:54:10;16.33;;;10.80;;
15878;SDS011;61999;51.514;14.614;2022-12-18T08:56:39;16.57;;;9.43;;
15878;SDS011;61999;51.514;14.614;2022-12-18T08:59:09;14.87;;;9.67;;
15878;SDS011;61999;51.514;14.614;2022-12-18T09:01:41;16.43;;;10.20;;
15878;SDS011;61999;51.514;14.614;2022-12-18T09:04:09;12.17;;;8.93;;
15878;SDS011;61999;51.514;14.614;2022-12-18T09:06:37;15.40;;;9.70;;
15878;SDS011;61999;51.514;14.614;2022-12-18T09:09:05;15.00;;;9.10;;
15878;SDS011;61999;51.514;14.614;2022-12-18T09:11:34;14.17;;;8.90;;
15878;SDS011;61999;51.514;14.614;2022-12-18T09:14:01;14.87;;;9.17;;
15878;SDS011;61999;51.514;14.614;2022-12-18T09:16:31;17.10;;;9.80;;
15878;SDS011;61999;51.514;14.614;2022-12-18T09:19:01;13.90;;;8.50;;
15878;SDS011;61999;51.514;14.614;2022-12-18T09:21:32;17.30;;;9.47;;
15878;SDS011;61999;51.514;14.614;2022-12-18T09:24:06;12.90;;;8.90;;
15878;SDS011;61999;51.514;14.614;2022-12-18T09:26:39;13.77;;;9.37;;
15878;SDS011;61999;51.514;14.614;2022-12-18T09:29:07;9.67;;;6.90;;
15878;SDS011;61999;51.514;14.614;2022-12-18T09:31:37;19.73;;;10.40;;
15878;SDS011;61999;51.514;14.614;2022-12-18T09:34:06;14.37;;;9.87;;
15878;SDS011;61999;51.514;14.614;2022-12-18T09:36:34;13.00;;;9.10;;
15878;SDS011;61999;51.514;14.614;2022-12-18T09:39:02;15.70;;;9.33;;
15878;SDS011;61999;51.514;14.614;2022-12-18T09:41:35;14.27;;;9.43;;
15878;SDS011;61999;51.514;14.614;2022-12-18T09:44:14;16.33;;;10.83;;
15878;SDS011;61999;51.514;14.614;2022-12-18T09:46:52;18.73;;;11.10;;
15878;SDS011;61999;51.514;14.614;2022-12-18T09:49:39;15.00;;;9.53;;
15878;SDS011;61999;51.514;14.614;2022-12-18T09:52:12;23.80;;;14.47;;
15878;SDS011;61999;51.514;14.614;2022-12-18T09:54:48;26.43;;;15.27;;
15878;SDS011;61999;51.514;14.614;2022-12-18T09:57:22;20.90;;;13.23;;
15878;SDS011;61999;51.514;14.614;2022-12-18T09:59:53;22.47;;;13.67;;
15878;SDS011;61999;51.514;14.614;2022-12-18T10:02:30;17.43;;;11.43;;
15878;SDS011;61999;51.514;14.614;2022-12-18T10:05:06;17.07;;;11.23;;
15878;SDS011;61999;51.514;14.614;2022-12-18T10:07:42;20.87;;;11.83;;
15878;SDS011;61999;51.514;14.614;2022-12-18T10:10:33;20.37;;;12.10;;
15878;SDS011;61999;51.514;14.614;2022-12-18T10:13:09;21.80;;;12.83;;
15878;SDS011;61999;51.514;14.614;2022-12-18T10:15:54;20.47;;;12.70;;
15878;SDS011;61999;51.514;14.614;2022-12-18T10:21:38;20.37;;;11.77;;
15878;SDS011;61999;51.514;14.614;2022-12-18T10:24:20;20.70;;;13.50;;
15878;SDS011;61999;51.514;14.614;2022-12-18T10:27:04;21.77;;;14.37;;
15878;SDS011;61999;51.514;14.614;2022-12-18T10:29:42;18.83;;;11.73;;
15878;SDS011;61999;51.514;14.614;2022-12-18T10:32:13;22.10;;;12.67;;
15878;SDS011;61999;51.514;14.614;2022-12-18T10:34:46;19.77;;;13.40;;
15878;SDS011;61999;51.514;14.614;2022-12-18T10:37:17;27.33;;;15.90;;
15878;SDS011;61999;51.514;14.614;2022-12-18T10:40:04;21.77;;;14.10;;
15878;SDS011;61999;51.514;14.614;2022-12-18T10:42:39;19.40;;;11.93;;
15878;SDS011;61999;51.514;14.614;2022-12-18T10:45:10;19.67;;;11.10;;
15878;SDS011;61999;51.514;14.614;2022-12-18T10:47:42;18.20;;;10.53;;
15878;SDS011;61999;51.514;14.614;2022-12-18T10:50:19;18.00;;;11.10;;
15878;SDS011;61999;51.514;14.614;2022-12-18T10:53:06;20.83;;;13.53;;
15878;SDS011;61999;51.514;14.614;2022-12-18T10:55:46;20.17;;;12.10;;
15878;SDS011;61999;51.514;14.614;2022-12-18T10:58:16;19.87;;;12.60;;
15878;SDS011;61999;51.514;14.614;2022-12-18T11:03:41;17.87;;;11.63;;
15878;SDS011;61999;51.514;14.614;2022-12-18T11:06:13;19.80;;;12.10;;
15878;SDS011;61999;51.514;14.614;2022-12-18T11:08:46;22.73;;;12.87;;
15878;SDS011;61999;51.514;14.614;2022-12-18T11:11:27;21.43;;;12.03;;
15878;SDS011;61999;51.514;14.614;2022-12-18T11:14:01;18.17;;;12.00;;
15878;SDS011;61999;51.514;14.614;2022-12-18T11:16:33;16.60;;;10.87;;
15878;SDS011;61999;51.514;14.614;2022-12-18T11:19:24;16.67;;;11.53;;
15878;SDS011;61999;51.514;14.614;2022-12-18T11:22:03;22.63;;;12.63;;
15878;SDS011;61999;51.514;14.614;2022-12-18T11:24:52;21.97;;;13.57;;
15878;SDS011;61999;51.514;14.614;2022-12-18T11:27:47;23.87;;;13.33;;
15878;SDS011;61999;51.514;14.614;2022-12-18T11:30:21;21.37;;;11.97;;
15878;SDS011;61999;51.514;14.614;2022-12-18T11:32:53;20.23;;;12.30;;
15878;SDS011;61999;51.514;14.614;2022-12-18T11:35:37;19.00;;;11.83;;
15878;SDS011;61999;51.514;14.614;2022-12-18T11:38:15;22.03;;;13.13;;
15878;SDS011;61999;51.514;14.614;2022-12-18T11:40:51;19.87;;;12.67;;
15878;SDS011;61999;51.514;14.614;2022-12-18T11:43:27;19.33;;;12.20;;
15878;SDS011;61999;51.514;14.614;2022-12-18T11:46:04;18.17;;;11.97;;
15878;SDS011;61999;51.514;14.614;2022-12-18T11:48:42;16.30;;;11.07;;
15878;SDS011;61999;51.514;14.614;2022-12-18T11:51:19;15.93;;;11.17;;
15878;SDS011;61999;51.514;14.614;2022-12-18T11:54:01;16.43;;;11.30;;
15878;SDS011;61999;51.514;14.614;2022-12-18T11:56:41;18.00;;;11.83;;
15878;SDS011;61999;51.514;14.614;2022-12-18T11:59:15;19.47;;;11.97;;
15878;SDS011;61999;51.514;14.614;2022-12-18T12:01:59;16.27;;;11.50;;
15878;SDS011;61999;51.514;14.614;2022-12-18T12:04:56;15.67;;;11.33;;
15878;SDS011;61999;51.514;14.614;2022-12-18T12:07:47;15.30;;;11.40;;
15878;SDS011;61999;51.514;14.614;2022-12-18T12:10:32;14.63;;;10.43;;
15878;SDS011;61999;51.514;14.614;2022-12-18T12:13:20;15.70;;;11.50;;
15878;SDS011;61999;51.514;14.614;2022-12-18T12:16:09;14.67;;;10.70;;
15878;SDS011;61999;51.514;14.614;2022-12-18T12:18:52;16.57;;;11.33;;
15878;SDS011;61999;51.514;14.614;2022-12-18T12:21:39;15.20;;;11.53;;
15878;SDS011;61999;51.514;14.614;2022-12-18T12:24:12;15.40;;;10.73;;
15878;SDS011;61999;51.514;14.614;2022-12-18T12:27:04;18.57;;;12.13;;
15878;SDS011;61999;51.514;14.614;2022-12-18T12:29:47;17.13;;;11.83;;
15878;SDS011;61999;51.514;14.614;2022-12-18T12:32:31;18.57;;;12.60;;
15878;SDS011;61999;51.514;14.614;2022-12-18T12:35:32;20.37;;;13.93;;
15878;SDS011;61999;51.514;14.614;2022-12-18T12:38:12;17.17;;;12.40;;
15878;SDS011;61999;51.514;14.614;2022-12-18T12:40:47;19.47;;;12.87;;
15878;SDS011;61999;51.514;14.614;2022-12-18T12:43:28;18.80;;;12.60;;
15878;SDS011;61999;51.514;14.614;2022-12-18T12:46:07;22.93;;;15.57;;
15878;SDS011;61999;51.514;14.614;2022-12-18T12:48:40;19.03;;;13.20;;
15878;SDS011;61999;51.514;14.614;2022-12-18T12:51:14;20.70;;;14.70;;
15878;SDS011;61999;51.514;14.614;2022-12-18T12:53:47;20.90;;;14.70;;
15878;SDS011;61999;51.514;14.614;2022-12-18T12:56:18;20.73;;;12.83;;
15878;SDS011;61999;51.514;14.614;2022-12-18T12:58:54;21.23;;;14.27;;
15878;SDS011;61999;51.514;14.614;2022-12-18T13:01:33;18.40;;;13.00;;
15878;SDS011;61999;51.514;14.614;2022-12-18T13:04:19;19.83;;;13.77;;
15878;SDS011;61999;51.514;14.614;2022-12-18T13:06:57;21.10;;;14.10;;
15878;SDS011;61999;51.514;14.614;2022-12-18T13:09:33;20.37;;;13.90;;
15878;SDS011;61999;51.514;14.614;2022-12-18T13:12:21;21.73;;;14.80;;
15878;SDS011;61999;51.514;14.614;2022-12-18T13:15:20;21.83;;;14.20;;
15878;SDS011;61999;51.514;14.614;2022-12-18T13:18:02;22.20;;;14.53;;
15878;SDS011;61999;51.514;14.614;2022-12-18T13:20:43;24.40;;;15.87;;
15878;SDS011;61999;51.514;14.614;2022-12-18T13:23:19;21.83;;;14.63;;
15878;SDS011;61999;51.514;14.614;2022-12-18T13:25:58;23.27;;;15.33;;
15878;SDS011;61999;51.514;14.614;2022-12-18T13:28:59;21.37;;;13.57;;
15878;SDS011;61999;51.514;14.614;2022-12-18T13:34:28;22.30;;;13.73;;
15878;SDS011;61999;51.514;14.614;2022-12-18T13:43:31;20.10;;;13.43;;
15878;SDS011;61999;51.514;14.614;2022-12-18T13:46:17;26.50;;;16.00;;
15878;SDS011;61999;51.514;14.614;2022-12-18T13:48:50;23.80;;;14.93;;
15878;SDS011;61999;51.514;14.614;2022-12-18T13:51:25;25.13;;;15.20;;
15878;SDS011;61999;51.514;14.614;2022-12-18T13:54:54;23.67;;;14.50;;
15878;SDS011;61999;51.514;14.614;2022-12-18T13:57:26;41.00;;;21.37;;
15878;SDS011;61999;51.514;14.614;2022-12-18T13:59:58;53.00;;;25.90;;
15878;SDS011;61999;51.514;14.614;2022-12-18T14:02:50;38.77;;;22.83;;
15878;SDS011;61999;51.514;14.614;2022-12-18T14:05:22;28.07;;;17.23;;
15878;SDS011;61999;51.514;14.614;2022-12-18T14:07:51;32.47;;;17.13;;
15878;SDS011;61999;51.514;14.614;2022-12-18T14:10:20;31.53;;;18.33;;
15878;SDS011;61999;51.514;14.614;2022-12-18T14:13:10;30.10;;;17.73;;
15878;SDS011;61999;51.514;14.614;2022-12-18T14:15:50;28.73;;;16.40;;
15878;SDS011;61999;51.514;14.614;2022-12-18T14:18:20;29.73;;;16.60;;
15878;SDS011;61999;51.514;14.614;2022-12-18T14:20:51;44.60;;;25.97;;
15878;SDS011;61999;51.514;14.614;2022-12-18T14:23:27;42.67;;;23.50;;
15878;SDS011;61999;51.514;14.614;2022-12-18T14:26:00;32.90;;;18.30;;
15878;SDS011;61999;51.514;14.614;2022-12-18T14:28:31;34.17;;;16.63;;
15878;SDS011;61999;51.514;14.614;2022-12-18T14:31:02;29.40;;;18.23;;
15878;SDS011;61999;51.514;14.614;2022-12-18T14:33:33;34.63;;;19.73;;
15878;SDS011;61999;51.514;14.614;2022-12-18T14:36:02;34.50;;;17.80;;
15878;SDS011;61999;51.514;14.614;2022-12-18T14:38:33;29.27;;;17.77;;
15878;SDS011;61999;51.514;14.614;2022-12-18T14:41:03;30.03;;;16.97;;
15878;SDS011;61999;51.514;14.614;2022-12-18T14:43:37;32.87;;;19.53;;
15878;SDS011;61999;51.514;14.614;2022-12-18T14:49:03;28.53;;;16.50;;
15878;SDS011;61999;51.514;14.614;2022-12-18T14:51:49;30.13;;;17.40;;
15878;SDS011;61999;51.514;14.614;2022-12-18T14:54:21;33.87;;;19.10;;
15878;SDS011;61999;51.514;14.614;2022-12-18T14:56:51;31.73;;;17.43;;
15878;SDS011;61999;51.514;14.614;2022-12-18T14:59:28;34.00;;;19.50;;
15878;SDS011;61999;51.514;14.614;2022-12-18T15:02:00;37.40;;;21.83;;
15878;SDS011;61999;51.514;14.614;2022-12-18T15:04:38;38.67;;;20.93;;